Time;durP1;ratioP1;P1;durP2;ratioP2;P2;SDS_P1;SDS_P2;PMS_P1;PMS_P2;Temp;Humidity;BMP_temperature;BMP_pressure;BME280_temperature;BME280_humidity;BME280_pressure;Samples;Min_cycle;Max_cycle;Signal;HPM_P1;HPM_P2
2021/07/09 00:01:45;;;;;;;5.30;3.60;;;;;;;;;;3579863;40;20047;-65
2021/07/09 00:04:11;;;;;;;10.73;3.75;;;;;;;;;;3584157;40;20071;-65
2021/07/09 00:06:36;;;;;;;12.63;4.10;;;;;;;;;;3583930;40;20150;-64
2021/07/09 00:09:06;;;;;;;6.78;4.20;;;;;;;;;;3580800;40;20048;-64
2021/07/09 00:11:33;;;;;;;10.43;3.72;;;;;;;;;;3581484;40;20418;-65
2021/07/09 00:13:58;;;;;;;6.10;3.60;;;;;;;;;;3573581;40;20052;-64
2021/07/09 00:16:24;;;;;;;6.45;3.65;;;;;;;;;;3581922;40;20044;-65
2021/07/09 00:18:50;;;;;;;5.95;3.58;;;;;;;;;;3582150;40;20130;-65
2021/07/09 00:21:16;;;;;;;5.45;3.97;;;;;;;;;;3583354;40;20178;-64
2021/07/09 00:23:43;;;;;;;7.60;3.80;;;;;;;;;;3583130;40;20071;-65
2021/07/09 00:26:10;;;;;;;7.65;3.60;;;;;;;;;;3580506;40;20311;-64
2021/07/09 00:28:36;;;;;;;5.55;3.33;;;;;;;;;;3582842;40;20044;-64
2021/07/09 00:31:02;;;;;;;5.80;3.30;;;;;;;;;;3584139;40;20100;-64
2021/07/09 00:33:27;;;;;;;9.13;3.92;;;;;;;;;;3582853;40;20033;-64
2021/07/09 00:35:53;;;;;;;6.78;4.20;;;;;;;;;;3583133;40;20040;-64
2021/07/09 00:38:18;;;;;;;6.25;3.53;;;;;;;;;;3582260;40;20037;-64
2021/07/09 00:40:44;;;;;;;5.70;3.55;;;;;;;;;;3583001;40;20281;-64
2021/07/09 00:43:10;;;;;;;7.68;3.50;;;;;;;;;;3581675;40;20035;-64
2021/07/09 00:45:35;;;;;;;4.68;3.53;;;;;;;;;;3581494;40;20036;-64
2021/07/09 00:48:01;;;;;;;7.70;3.70;;;;;;;;;;3582393;40;20144;-64
2021/07/09 00:50:27;;;;;;;5.78;3.58;;;;;;;;;;3583917;40;20045;-64
2021/07/09 00:52:52;;;;;;;5.65;3.28;;;;;;;;;;3583075;40;20098;-64
2021/07/09 00:55:18;;;;;;;10.55;3.45;;;;;;;;;;3582929;40;20340;-64
2021/07/09 00:57:49;;;;;;;10.02;3.78;;;;;;;;;;3572179;40;20464;-64
2021/07/09 01:00:17;;;;;;;4.57;3.25;;;;;;;;;;3582501;40;20039;-64
2021/07/09 01:02:44;;;;;;;17.85;3.78;;;;;;;;;;3582295;40;20037;-65
2021/07/09 01:05:11;;;;;;;5.95;3.75;;;;;;;;;;3581479;40;20030;-64
2021/07/09 01:07:37;;;;;;;5.45;3.42;;;;;;;;;;3581607;40;20052;-64
2021/07/09 01:10:07;;;;;;;8.07;3.35;;;;;;;;;;3582797;40;20058;-64
2021/07/09 01:12:32;;;;;;;6.07;3.70;;;;;;;;;;3580814;40;20044;-64
2021/07/09 01:14:58;;;;;;;7.00;3.55;;;;;;;;;;3583270;40;20033;-64
2021/07/09 01:17:24;;;;;;;6.22;3.53;;;;;;;;;;3581624;40;20565;-64
2021/07/09 01:19:49;;;;;;;5.82;3.50;;;;;;;;;;3582722;40;20036;-64
2021/07/09 01:22:15;;;;;;;6.22;3.80;;;;;;;;;;3584351;40;20446;-65
2021/07/09 01:24:40;;;;;;;5.10;3.35;;;;;;;;;;3583985;40;20185;-64
2021/07/09 01:27:06;;;;;;;7.35;4.15;;;;;;;;;;3583234;40;20047;-64
2021/07/09 01:29:32;;;;;;;9.93;3.45;;;;;;;;;;3583386;40;20041;-65
2021/07/09 01:31:58;;;;;;;7.32;3.47;;;;;;;;;;3582997;40;20029;-65
2021/07/09 01:34:24;;;;;;;6.70;3.65;;;;;;;;;;3583735;40;20036;-64
2021/07/09 01:36:50;;;;;;;7.32;3.88;;;;;;;;;;3585069;40;20032;-64
2021/07/09 01:39:17;;;;;;;5.50;3.88;;;;;;;;;;3584158;40;20275;-64
2021/07/09 01:41:42;;;;;;;5.88;3.53;;;;;;;;;;3584027;40;20113;-65
2021/07/09 01:44:09;;;;;;;7.07;3.50;;;;;;;;;;3583595;40;20040;-64
2021/07/09 01:46:35;;;;;;;5.13;3.70;;;;;;;;;;3581959;40;20130;-64
2021/07/09 01:49:01;;;;;;;4.97;3.63;;;;;;;;;;3583904;40;20044;-65
2021/07/09 01:51:27;;;;;;;6.32;3.35;;;;;;;;;;3572798;40;20063;-65
2021/07/09 01:53:52;;;;;;;5.68;3.22;;;;;;;;;;3582444;40;20036;-64
2021/07/09 01:56:19;;;;;;;7.30;3.80;;;;;;;;;;3581630;40;20137;-65
2021/07/09 01:58:44;;;;;;;5.20;3.88;;;;;;;;;;3584563;40;20052;-65
2021/07/09 02:01:10;;;;;;;6.53;3.72;;;;;;;;;;3582377;40;20041;-66
2021/07/09 02:03:36;;;;;;;8.82;3.83;;;;;;;;;;3583623;40;20095;-64
2021/07/09 02:06:02;;;;;;;10.68;4.15;;;;;;;;;;3582899;40;20032;-65
2021/07/09 02:08:28;;;;;;;5.93;3.50;;;;;;;;;;3583746;40;20040;-65
2021/07/09 02:10:53;;;;;;;5.40;4.18;;;;;;;;;;3582592;40;20036;-65
2021/07/09 02:13:19;;;;;;;5.88;3.88;;;;;;;;;;3581281;40;20065;-67
2021/07/09 02:15:46;;;;;;;6.90;4.32;;;;;;;;;;3583305;40;20346;-65
2021/07/09 02:18:14;;;;;;;6.65;3.92;;;;;;;;;;3583038;40;20032;-66
2021/07/09 02:20:40;;;;;;;6.80;3.97;;;;;;;;;;3576565;40;20508;-66
2021/07/09 02:23:08;;;;;;;6.78;4.07;;;;;;;;;;3582402;40;20028;-66
2021/07/09 02:25:35;;;;;;;5.65;3.75;;;;;;;;;;3581041;40;20081;-67
2021/07/09 02:28:01;;;;;;;6.07;4.10;;;;;;;;;;3581085;40;20040;-67
2021/07/09 02:30:28;;;;;;;5.40;3.83;;;;;;;;;;3582509;40;20048;-67
2021/07/09 02:32:54;;;;;;;8.02;4.18;;;;;;;;;;3583488;40;20090;-67
2021/07/09 02:35:23;;;;;;;5.22;4.43;;;;;;;;;;3581451;40;20486;-66
2021/07/09 02:37:49;;;;;;;9.13;5.05;;;;;;;;;;3582028;40;20017;-67
2021/07/09 02:40:17;;;;;;;9.82;5.18;;;;;;;;;;3583117;40;20272;-66
2021/07/09 02:42:45;;;;;;;5.35;4.28;;;;;;;;;;3576211;40;20534;-66
2021/07/09 02:45:11;;;;;;;5.63;4.18;;;;;;;;;;3582993;40;20069;-66
2021/07/09 02:47:38;;;;;;;5.63;4.47;;;;;;;;;;3583239;40;20052;-66
2021/07/09 02:50:11;;;;;;;6.78;4.47;;;;;;;;;;3582303;40;20064;-67
2021/07/09 02:52:36;;;;;;;5.55;4.63;;;;;;;;;;3583071;40;20049;-66
2021/07/09 02:55:05;;;;;;;6.68;4.38;;;;;;;;;;3583385;40;20043;-66
2021/07/09 02:57:30;;;;;;;6.72;4.70;;;;;;;;;;3582402;40;20068;-66
2021/07/09 02:59:56;;;;;;;6.13;4.03;;;;;;;;;;3584545;40;20024;-67
2021/07/09 03:02:21;;;;;;;5.95;4.68;;;;;;;;;;3576752;40;20373;-66
2021/07/09 03:04:47;;;;;;;5.57;4.47;;;;;;;;;;3582134;40;20043;-66
2021/07/09 03:07:12;;;;;;;7.40;4.63;;;;;;;;;;3582540;40;20056;-67
2021/07/09 03:09:38;;;;;;;5.13;4.10;;;;;;;;;;3583116;40;20387;-66
2021/07/09 03:12:04;;;;;;;5.80;4.50;;;;;;;;;;3583786;40;20035;-66
2021/07/09 03:14:29;;;;;;;6.10;4.63;;;;;;;;;;3584664;40;20041;-66
2021/07/09 03:16:54;;;;;;;8.50;4.60;;;;;;;;;;3582913;40;20040;-67
2021/07/09 03:19:20;;;;;;;15.95;4.53;;;;;;;;;;3581965;40;20118;-67
2021/07/09 03:21:46;;;;;;;6.70;4.85;;;;;;;;;;3582316;40;20559;-67
2021/07/09 03:24:11;;;;;;;5.50;4.43;;;;;;;;;;3583962;40;20047;-67
2021/07/09 03:26:37;;;;;;;7.65;4.93;;;;;;;;;;3580913;40;20412;-66
2021/07/09 03:29:03;;;;;;;6.30;4.68;;;;;;;;;;3581711;40;20272;-67
2021/07/09 03:31:30;;;;;;;6.85;4.55;;;;;;;;;;3583114;40;20035;-67
2021/07/09 03:33:57;;;;;;;6.65;4.32;;;;;;;;;;3581584;40;20040;-67
2021/07/09 03:36:22;;;;;;;7.05;4.10;;;;;;;;;;3581172;40;20040;-67
2021/07/09 03:38:48;;;;;;;12.18;4.78;;;;;;;;;;3574998;40;20044;-67
2021/07/09 03:41:14;;;;;;;8.02;4.47;;;;;;;;;;3580796;40;20043;-67
2021/07/09 03:43:39;;;;;;;5.43;4.25;;;;;;;;;;3582162;40;20073;-67
2021/07/09 03:46:05;;;;;;;7.88;4.50;;;;;;;;;;3582744;40;20368;-66
2021/07/09 03:48:30;;;;;;;5.38;4.20;;;;;;;;;;3583566;40;20041;-66
2021/07/09 03:50:56;;;;;;;5.68;4.38;;;;;;;;;;3582889;40;20056;-66
2021/07/09 03:53:21;;;;;;;13.90;5.00;;;;;;;;;;3583804;40;20040;-66
2021/07/09 03:55:47;;;;;;;6.30;4.00;;;;;;;;;;3584392;40;20303;-66
2021/07/09 03:58:12;;;;;;;6.82;4.50;;;;;;;;;;3572705;40;20052;-66
2021/07/09 04:00:38;;;;;;;4.90;4.28;;;;;;;;;;3584163;40;20040;-66
2021/07/09 04:03:03;;;;;;;8.77;4.97;;;;;;;;;;3581989;40;20039;-66
2021/07/09 04:05:29;;;;;;;9.07;4.38;;;;;;;;;;3582588;40;20402;-67
2021/07/09 04:07:54;;;;;;;5.38;4.45;;;;;;;;;;3583892;40;20045;-66
2021/07/09 04:10:20;;;;;;;6.95;5.00;;;;;;;;;;3582764;40;20043;-66
2021/07/09 04:12:46;;;;;;;7.00;4.80;;;;;;;;;;3583230;40;20045;-67
2021/07/09 04:15:12;;;;;;;8.63;4.75;;;;;;;;;;3583637;40;20041;-67
2021/07/09 04:17:37;;;;;;;8.50;5.03;;;;;;;;;;3583947;40;20275;-67
2021/07/09 04:20:04;;;;;;;7.07;4.28;;;;;;;;;;3582944;40;20052;-67
2021/07/09 04:22:29;;;;;;;5.65;4.28;;;;;;;;;;3584286;40;20452;-67
2021/07/09 04:24:54;;;;;;;5.45;4.13;;;;;;;;;;3580237;40;20033;-67
2021/07/09 04:27:20;;;;;;;8.07;5.00;;;;;;;;;;3581196;40;20422;-66
2021/07/09 04:29:46;;;;;;;6.03;4.63;;;;;;;;;;3583813;40;20364;-67
2021/07/09 04:32:12;;;;;;;9.00;4.47;;;;;;;;;;3583777;40;20044;-65
2021/07/09 04:34:38;;;;;;;7.65;5.10;;;;;;;;;;3580748;40;20029;-65
2021/07/09 04:37:08;;;;;;;8.07;5.18;;;;;;;;;;3581550;40;20364;-65
2021/07/09 04:39:37;;;;;;;7.25;5.63;;;;;;;;;;3583470;40;20024;-65
2021/07/09 04:42:05;;;;;;;6.20;4.88;;;;;;;;;;3584122;40;20383;-65
2021/07/09 04:44:31;;;;;;;7.90;5.30;;;;;;;;;;3583387;40;20037;-65
2021/07/09 04:46:56;;;;;;;6.80;4.80;;;;;;;;;;3579829;40;20028;-65
2021/07/09 04:49:21;;;;;;;9.77;5.60;;;;;;;;;;3576027;40;20044;-65
2021/07/09 04:51:47;;;;;;;7.95;5.82;;;;;;;;;;3582033;40;20028;-65
2021/07/09 04:54:12;;;;;;;9.38;5.53;;;;;;;;;;3580669;40;20045;-66
2021/07/09 04:56:38;;;;;;;7.38;5.55;;;;;;;;;;3582018;40;20702;-66
2021/07/09 04:59:03;;;;;;;7.40;6.07;;;;;;;;;;3580620;40;20044;-66
2021/07/09 05:01:29;;;;;;;13.68;7.00;;;;;;;;;;3582013;40;20040;-67
2021/07/09 05:03:54;;;;;;;7.30;6.05;;;;;;;;;;3581753;40;20343;-66
2021/07/09 05:06:20;;;;;;;11.52;6.75;;;;;;;;;;3582004;40;20036;-67
2021/07/09 05:08:45;;;;;;;10.32;6.25;;;;;;;;;;3582592;40;20040;-67
2021/07/09 05:11:11;;;;;;;7.63;5.82;;;;;;;;;;3580891;40;20048;-67
2021/07/09 05:13:39;;;;;;;7.35;6.43;;;;;;;;;;3584368;40;20225;-67
2021/07/09 05:16:05;;;;;;;7.10;6.13;;;;;;;;;;3582232;40;20360;-67
2021/07/09 05:18:31;;;;;;;9.63;6.10;;;;;;;;;;3581993;40;20045;-67
2021/07/09 05:20:56;;;;;;;8.68;6.47;;;;;;;;;;3578705;40;20033;-67
2021/07/09 05:23:22;;;;;;;7.88;7.00;;;;;;;;;;3583075;40;20040;-66
2021/07/09 05:25:47;;;;;;;7.85;6.82;;;;;;;;;;3583184;40;20371;-67
2021/07/09 05:28:12;;;;;;;8.75;7.68;;;;;;;;;;3582805;40;20037;-67
2021/07/09 05:30:38;;;;;;;11.05;7.78;;;;;;;;;;3576174;40;20040;-67
2021/07/09 05:33:04;;;;;;;9.05;7.22;;;;;;;;;;3582195;40;20037;-67
2021/07/09 05:35:33;;;;;;;9.80;7.70;;;;;;;;;;3583119;40;20080;-67
2021/07/09 05:37:58;;;;;;;10.30;8.20;;;;;;;;;;3580832;40;20093;-67
2021/07/09 05:40:24;;;;;;;8.98;8.07;;;;;;;;;;3580329;40;20875;-67
2021/07/09 05:42:49;;;;;;;8.95;6.95;;;;;;;;;;3581223;40;20150;-67
2021/07/09 05:45:15;;;;;;;8.70;7.78;;;;;;;;;;3582273;40;20073;-67
2021/07/09 05:47:40;;;;;;;8.60;7.78;;;;;;;;;;3581493;40;20483;-67
2021/07/09 05:50:07;;;;;;;9.65;7.35;;;;;;;;;;3583021;40;20033;-66
2021/07/09 05:52:32;;;;;;;8.85;7.43;;;;;;;;;;3580221;40;20037;-67
2021/07/09 05:54:58;;;;;;;9.07;8.07;;;;;;;;;;3582631;40;20311;-66
2021/07/09 05:57:23;;;;;;;10.43;8.27;;;;;;;;;;3582671;40;20052;-66
2021/07/09 05:59:49;;;;;;;13.02;9.05;;;;;;;;;;3574311;40;20056;-67
2021/07/09 06:02:14;;;;;;;10.07;7.75;;;;;;;;;;3583105;40;20037;-67
2021/07/09 06:04:39;;;;;;;13.57;8.35;;;;;;;;;;3581043;40;20028;-67
2021/07/09 06:07:05;;;;;;;10.20;8.30;;;;;;;;;;3583283;40;20033;-67
2021/07/09 06:09:32;;;;;;;15.75;8.25;;;;;;;;;;3583274;40;20040;-66
2021/07/09 06:11:58;;;;;;;9.27;8.30;;;;;;;;;;3584187;40;20033;-66
2021/07/09 06:14:24;;;;;;;11.27;8.43;;;;;;;;;;3573798;40;20470;-66
2021/07/09 06:16:49;;;;;;;9.82;8.80;;;;;;;;;;3579350;40;20033;-66
2021/07/09 06:19:15;;;;;;;10.30;9.23;;;;;;;;;;3582411;40;20037;-66
2021/07/09 06:21:41;;;;;;;11.90;9.50;;;;;;;;;;3582876;40;20043;-67
2021/07/09 06:24:06;;;;;;;9.95;8.00;;;;;;;;;;3575761;40;20032;-67
2021/07/09 06:26:32;;;;;;;13.05;8.40;;;;;;;;;;3579543;40;20397;-67
2021/07/09 06:28:57;;;;;;;9.68;7.93;;;;;;;;;;3581644;40;20048;-67
2021/07/09 06:31:23;;;;;;;10.35;9.32;;;;;;;;;;3580427;40;20041;-66
2021/07/09 06:33:48;;;;;;;10.38;9.10;;;;;;;;;;3582825;40;20048;-67
2021/07/09 06:36:14;;;;;;;14.32;10.05;;;;;;;;;;3580511;40;20044;-67
2021/07/09 06:38:40;;;;;;;13.02;10.48;;;;;;;;;;3583952;40;20063;-67
2021/07/09 06:41:05;;;;;;;13.25;10.27;;;;;;;;;;3582492;40;20096;-67
2021/07/09 06:43:31;;;;;;;12.60;9.63;;;;;;;;;;3582715;40;20306;-66
2021/07/09 06:45:57;;;;;;;12.93;10.20;;;;;;;;;;3582866;40;20040;-66
2021/07/09 06:48:22;;;;;;;11.43;9.73;;;;;;;;;;3583938;40;20563;-66
2021/07/09 06:50:48;;;;;;;12.77;9.23;;;;;;;;;;3582783;40;20056;-66
2021/07/09 06:53:15;;;;;;;11.60;10.02;;;;;;;;;;3584297;40;20049;-66
2021/07/09 06:55:40;;;;;;;12.95;10.15;;;;;;;;;;3583514;40;20534;-65
2021/07/09 06:58:06;;;;;;;12.25;10.20;;;;;;;;;;3580914;40;20134;-66
2021/07/09 07:00:31;;;;;;;10.88;9.52;;;;;;;;;;3582211;40;20065;-66
2021/07/09 07:02:56;;;;;;;10.52;9.43;;;;;;;;;;3579990;40;20036;-66
2021/07/09 07:05:22;;;;;;;11.75;9.98;;;;;;;;;;3583615;40;20052;-66
2021/07/09 07:07:47;;;;;;;13.70;9.57;;;;;;;;;;3583283;40;20035;-67
2021/07/09 07:10:13;;;;;;;10.65;8.38;;;;;;;;;;3583193;40;20037;-66
2021/07/09 07:12:41;;;;;;;10.05;8.85;;;;;;;;;;3582927;40;20040;-67
2021/07/09 07:15:08;;;;;;;10.80;9.25;;;;;;;;;;3585036;40;20032;-66
2021/07/09 07:17:35;;;;;;;15.80;11.18;;;;;;;;;;3583318;40;20032;-66
2021/07/09 07:20:00;;;;;;;12.25;10.40;;;;;;;;;;3582426;40;20051;-65
2021/07/09 07:22:26;;;;;;;13.32;11.93;;;;;;;;;;3580347;40;20045;-65
2021/07/09 07:24:52;;;;;;;12.60;11.20;;;;;;;;;;3582498;40;20044;-65
2021/07/09 07:27:24;;;;;;;13.43;11.13;;;;;;;;;;3581314;40;20412;-65
2021/07/09 07:29:49;;;;;;;12.75;11.50;;;;;;;;;;3581639;40;20040;-66
2021/07/09 07:32:15;;;;;;;24.38;12.57;;;;;;;;;;3580352;40;20510;-65
2021/07/09 07:34:41;;;;;;;12.18;10.98;;;;;;;;;;3582723;40;20614;-65
2021/07/09 07:37:07;;;;;;;14.48;11.75;;;;;;;;;;3583270;40;20289;-65
2021/07/09 07:39:34;;;;;;;13.73;12.43;;;;;;;;;;3583170;40;20051;-65
2021/07/09 07:41:59;;;;;;;14.88;12.95;;;;;;;;;;3581500;40;20047;-65
2021/07/09 07:44:26;;;;;;;16.92;13.50;;;;;;;;;;3582840;40;20257;-65
2021/07/09 07:46:55;;;;;;;17.80;13.10;;;;;;;;;;3586558;40;20561;-65
2021/07/09 07:49:22;;;;;;;14.13;12.43;;;;;;;;;;3582050;40;20045;-65
2021/07/09 07:51:51;;;;;;;13.25;12.02;;;;;;;;;;3585416;40;20059;-65
2021/07/09 07:54:17;;;;;;;18.98;12.88;;;;;;;;;;3583735;40;20040;-65
2021/07/09 07:56:44;;;;;;;15.13;12.13;;;;;;;;;;3583815;40;20049;-65
2021/07/09 07:59:09;;;;;;;13.57;12.27;;;;;;;;;;3583728;40;20051;-65
2021/07/09 08:01:35;;;;;;;15.35;13.65;;;;;;;;;;3583234;40;20376;-65
2021/07/09 08:04:00;;;;;;;19.10;14.65;;;;;;;;;;3582556;40;20032;-65
2021/07/09 08:06:25;;;;;;;19.80;13.70;;;;;;;;;;3583630;40;20033;-65
2021/07/09 08:08:51;;;;;;;18.52;14.30;;;;;;;;;;3576233;40;20059;-65
2021/07/09 08:11:16;;;;;;;18.60;14.60;;;;;;;;;;3581437;40;20033;-65
2021/07/09 08:13:42;;;;;;;16.23;14.52;;;;;;;;;;3574949;40;20052;-65
2021/07/09 08:16:09;;;;;;;16.00;14.52;;;;;;;;;;3581733;40;20036;-65
2021/07/09 08:18:35;;;;;;;16.65;14.70;;;;;;;;;;3583145;40;20035;-64
2021/07/09 08:21:01;;;;;;;17.15;15.43;;;;;;;;;;3583041;40;20029;-65
2021/07/09 08:23:27;;;;;;;17.83;14.45;;;;;;;;;;3583926;40;20043;-65
2021/07/09 08:25:52;;;;;;;18.17;15.07;;;;;;;;;;3579444;40;20215;-65
2021/07/09 08:28:19;;;;;;;16.02;14.48;;;;;;;;;;3573490;40;20040;-65
2021/07/09 08:30:46;;;;;;;16.88;14.77;;;;;;;;;;3583231;40;20032;-65
2021/07/09 08:33:11;;;;;;;18.50;15.43;;;;;;;;;;3583382;40;20088;-65
2021/07/09 08:35:37;;;;;;;18.75;16.75;;;;;;;;;;3583842;40;20149;-65
2021/07/09 08:38:03;;;;;;;17.48;15.70;;;;;;;;;;3582935;40;20045;-65
2021/07/09 08:40:28;;;;;;;18.60;16.30;;;;;;;;;;3582813;40;20049;-64
2021/07/09 08:42:54;;;;;;;17.83;16.00;;;;;;;;;;3581647;40;20033;-64
2021/07/09 08:45:19;;;;;;;18.67;16.88;;;;;;;;;;3582570;40;20040;-64
2021/07/09 08:47:47;;;;;;;17.60;15.77;;;;;;;;;;3570308;40;20063;-65
2021/07/09 08:50:12;;;;;;;18.95;16.92;;;;;;;;;;3581840;40;20054;-65
2021/07/09 08:52:40;;;;;;;18.30;15.75;;;;;;;;;;3582896;40;20657;-65
2021/07/09 08:55:11;;;;;;;22.40;17.13;;;;;;;;;;3582724;40;20040;-64
2021/07/09 08:57:41;;;;;;;19.70;17.70;;;;;;;;;;3581454;40;20029;-65
2021/07/09 09:00:27;;;;;;;19.87;17.77;;;;;;;;;;3582517;40;20121;-65
2021/07/09 09:02:54;;;;;;;19.02;16.92;;;;;;;;;;3582153;40;20272;-65
2021/07/09 09:05:20;;;;;;;19.30;17.27;;;;;;;;;;3581185;40;20130;-65
2021/07/09 09:07:56;;;;;;;20.50;17.60;;;;;;;;;;3582723;40;20025;-65
2021/07/09 09:10:35;;;;;;;22.95;20.50;;;;;;;;;;3582867;40;20039;-65
2021/07/09 09:13:12;;;;;;;19.02;17.05;;;;;;;;;;3581953;40;20372;-65
2021/07/09 09:15:39;;;;;;;23.67;21.38;;;;;;;;;;3583540;40;20037;-65
2021/07/09 09:18:20;;;;;;;19.63;17.52;;;;;;;;;;3576038;40;20125;-65
2021/07/09 09:20:58;;;;;;;19.45;15.65;;;;;;;;;;3581051;40;20051;-64
2021/07/09 09:23:26;;;;;;;19.02;16.08;;;;;;;;;;3581999;40;20125;-65
2021/07/09 09:25:52;;;;;;;21.20;15.63;;;;;;;;;;3582437;40;20036;-65
2021/07/09 09:28:17;;;;;;;20.05;16.60;;;;;;;;;;3582917;40;20048;-64
2021/07/09 09:30:44;;;;;;;17.33;15.65;;;;;;;;;;3582223;40;20032;-64
2021/07/09 09:33:12;;;;;;;19.85;17.85;;;;;;;;;;3582204;40;20407;-64
2021/07/09 09:35:43;;;;;;;24.45;15.77;;;;;;;;;;3582881;40;20060;-64
2021/07/09 09:38:11;;;;;;;17.55;15.80;;;;;;;;;;3582965;40;20349;-64
2021/07/09 09:40:39;;;;;;;20.98;17.00;;;;;;;;;;3580719;40;20025;-64
2021/07/09 09:43:07;;;;;;;18.55;16.73;;;;;;;;;;3582457;40;20052;-64
2021/07/09 09:45:34;;;;;;;20.25;18.25;;;;;;;;;;3582955;40;20033;-64
2021/07/09 09:48:11;;;;;;;20.60;18.50;;;;;;;;;;3574716;40;20056;-64
2021/07/09 09:50:42;;;;;;;18.38;16.45;;;;;;;;;;3585186;40;20054;-64
2021/07/09 09:53:08;;;;;;;24.77;18.20;;;;;;;;;;3583403;40;20117;-65
2021/07/09 09:55:34;;;;;;;22.95;20.63;;;;;;;;;;3581824;40;20072;-64
2021/07/09 09:58:19;;;;;;;18.58;16.50;;;;;;;;;;3584257;40;20037;-64
2021/07/09 10:00:47;;;;;;;22.25;16.10;;;;;;;;;;3583368;40;20372;-65
2021/07/09 10:03:13;;;;;;;19.85;16.35;;;;;;;;;;3583152;40;20064;-64
2021/07/09 10:05:41;;;;;;;17.88;15.80;;;;;;;;;;3582960;40;20069;-65
2021/07/09 10:08:13;;;;;;;19.05;16.38;;;;;;;;;;3583922;40;20096;-65
2021/07/09 10:10:43;;;;;;;16.35;14.68;;;;;;;;;;3582581;40;20456;-65
2021/07/09 10:13:10;;;;;;;19.10;16.73;;;;;;;;;;3582508;40;20045;-65
2021/07/09 10:15:39;;;;;;;22.75;17.25;;;;;;;;;;3583146;40;20029;-65
2021/07/09 10:18:05;;;;;;;19.13;17.15;;;;;;;;;;3582933;40;20032;-65
2021/07/09 10:20:31;;;;;;;17.30;15.48;;;;;;;;;;3584254;40;20040;-65
2021/07/09 10:22:58;;;;;;;20.55;16.92;;;;;;;;;;3584116;40;20036;-65
2021/07/09 10:25:24;;;;;;;18.10;16.20;;;;;;;;;;3582120;40;20033;-65
2021/07/09 10:27:50;;;;;;;19.67;15.48;;;;;;;;;;3581878;40;20026;-65
2021/07/09 10:30:16;;;;;;;15.68;14.07;;;;;;;;;;3582199;40;20040;-65
2021/07/09 10:32:48;;;;;;;15.93;14.45;;;;;;;;;;3583526;40;20063;-65
2021/07/09 10:35:43;;;;;;;15.60;13.98;;;;;;;;;;3583847;40;20037;-65
2021/07/09 10:38:11;;;;;;;14.60;13.10;;;;;;;;;;3579365;40;20045;-63
2021/07/09 10:40:38;;;;;;;15.32;13.00;;;;;;;;;;3583044;40;20182;-63
2021/07/09 10:43:05;;;;;;;14.30;12.93;;;;;;;;;;3583335;40;20100;-64
2021/07/09 10:45:31;;;;;;;13.10;11.77;;;;;;;;;;3582955;40;20044;-63
2021/07/09 10:48:02;;;;;;;12.85;11.13;;;;;;;;;;3579765;40;20044;-64
2021/07/09 10:50:41;;;;;;;12.27;11.05;;;;;;;;;;3581509;40;20029;-64
2021/07/09 10:53:09;;;;;;;11.98;10.70;;;;;;;;;;3582560;40;20159;-63
2021/07/09 10:55:40;;;;;;;14.43;12.30;;;;;;;;;;3580968;40;20199;-63
2021/07/09 10:58:09;;;;;;;13.73;11.85;;;;;;;;;;3582922;40;20037;-63
2021/07/09 11:00:40;;;;;;;10.95;9.10;;;;;;;;;;3582416;40;20417;-63
2021/07/09 11:03:07;;;;;;;10.60;9.05;;;;;;;;;;3583307;40;20029;-63
2021/07/09 11:05:42;;;;;;;11.88;9.55;;;;;;;;;;3581930;40;20473;-63
2021/07/09 11:08:29;;;;;;;10.85;8.35;;;;;;;;;;3583853;40;20039;-63
2021/07/09 11:11:16;;;;;;;10.77;8.20;;;;;;;;;;3583288;40;20048;-62
2021/07/09 11:13:42;;;;;;;8.63;7.35;;;;;;;;;;3583402;40;20055;-62
2021/07/09 11:16:35;;;;;;;11.98;7.40;;;;;;;;;;3576644;40;20052;-63
2021/07/09 11:19:02;;;;;;;9.93;7.65;;;;;;;;;;3582721;40;20422;-63
2021/07/09 11:21:31;;;;;;;8.40;7.38;;;;;;;;;;3583652;40;20037;-63
2021/07/09 11:23:57;;;;;;;7.88;6.70;;;;;;;;;;3584274;40;20033;-62
2021/07/09 11:26:25;;;;;;;10.73;7.03;;;;;;;;;;3583599;40;20460;-63
2021/07/09 11:28:51;;;;;;;10.68;6.68;;;;;;;;;;3581798;40;20059;-63
2021/07/09 11:31:31;;;;;;;10.40;6.75;;;;;;;;;;3582756;40;20371;-63
2021/07/09 11:34:07;;;;;;;13.55;6.85;;;;;;;;;;3582516;40;20044;-64
2021/07/09 11:36:40;;;;;;;11.10;6.60;;;;;;;;;;3584109;40;20264;-64
2021/07/09 11:39:15;;;;;;;7.82;5.93;;;;;;;;;;3581880;40;20041;-63
2021/07/09 11:42:15;;;;;;;7.72;5.55;;;;;;;;;;3585150;40;20077;-64
2021/07/09 11:44:43;;;;;;;12.80;5.85;;;;;;;;;;3582137;40;20043;-64
2021/07/09 11:47:21;;;;;;;8.32;6.10;;;;;;;;;;3583212;40;20044;-63
2021/07/09 11:49:48;;;;;;;8.77;6.35;;;;;;;;;;3581882;40;20126;-63
2021/07/09 11:52:22;;;;;;;8.77;5.80;;;;;;;;;;3582795;40;20051;-63
2021/07/09 11:54:48;;;;;;;6.85;5.43;;;;;;;;;;3582296;40;20449;-63
2021/07/09 11:57:17;;;;;;;6.70;4.82;;;;;;;;;;3582731;40;20372;-64
2021/07/09 11:59:44;;;;;;;6.00;4.70;;;;;;;;;;3580481;40;20061;-64
2021/07/09 12:02:15;;;;;;;8.30;4.65;;;;;;;;;;3582392;40;20052;-64
2021/07/09 12:04:43;;;;;;;6.95;5.18;;;;;;;;;;3581121;40;20073;-63
2021/07/09 12:07:16;;;;;;;7.63;5.00;;;;;;;;;;3582143;40;20320;-63
2021/07/09 12:09:49;;;;;;;7.22;5.10;;;;;;;;;;3581414;40;20041;-63
2021/07/09 12:12:16;;;;;;;8.88;4.82;;;;;;;;;;3582282;40;20036;-64
2021/07/09 12:14:55;;;;;;;9.65;5.28;;;;;;;;;;3582482;40;20055;-64
2021/07/09 12:17:22;;;;;;;6.95;5.05;;;;;;;;;;3582227;40;20130;-63
2021/07/09 12:19:56;;;;;;;7.90;5.07;;;;;;;;;;3582436;40;20056;-63
2021/07/09 12:22:31;;;;;;;8.52;4.30;;;;;;;;;;3582117;40;20192;-63
2021/07/09 12:24:59;;;;;;;7.88;4.30;;;;;;;;;;3583081;40;20044;-64
2021/07/09 12:27:25;;;;;;;5.18;4.05;;;;;;;;;;3581081;40;20033;-63
2021/07/09 12:29:51;;;;;;;6.13;3.95;;;;;;;;;;3583330;40;20040;-64
2021/07/09 12:32:17;;;;;;;6.80;3.20;;;;;;;;;;3582830;40;20029;-64
2021/07/09 12:34:42;;;;;;;4.40;3.33;;;;;;;;;;3583553;40;20048;-63
2021/07/09 12:37:08;;;;;;;6.90;3.17;;;;;;;;;;3582868;40;20382;-63
2021/07/09 12:39:34;;;;;;;5.60;3.08;;;;;;;;;;3583017;40;20037;-63
2021/07/09 12:42:10;;;;;;;5.22;3.03;;;;;;;;;;3582034;40;20090;-63
2021/07/09 12:44:36;;;;;;;6.40;2.78;;;;;;;;;;3582718;40;20659;-63
2021/07/09 12:47:01;;;;;;;4.78;3.20;;;;;;;;;;3580193;40;20045;-63
2021/07/09 12:49:26;;;;;;;7.38;3.78;;;;;;;;;;3580604;40;20486;-63
2021/07/09 12:51:52;;;;;;;5.75;3.50;;;;;;;;;;3579326;40;20572;-63
2021/07/09 12:54:19;;;;;;;6.80;3.55;;;;;;;;;;3581058;40;20084;-63
2021/07/09 12:56:48;;;;;;;6.25;3.25;;;;;;;;;;3581887;40;20403;-63
2021/07/09 12:59:22;;;;;;;6.05;2.97;;;;;;;;;;3581524;40;20272;-64
2021/07/09 13:02:15;;;;;;;4.85;3.42;;;;;;;;;;3582025;40;20415;-63
2021/07/09 13:04:45;;;;;;;7.00;3.45;;;;;;;;;;3582211;40;20593;-63
2021/07/09 13:07:21;;;;;;;5.95;3.60;;;;;;;;;;3583723;40;20036;-63
2021/07/09 13:09:48;;;;;;;6.35;3.70;;;;;;;;;;3582468;40;20035;-62
2021/07/09 13:12:16;;;;;;;7.68;3.47;;;;;;;;;;3581166;40;20044;-62
2021/07/09 13:15:03;;;;;;;7.18;3.22;;;;;;;;;;3583974;40;20040;-62
2021/07/09 13:17:31;;;;;;;5.15;3.80;;;;;;;;;;3583946;40;20055;-62
2021/07/09 13:19:59;;;;;;;6.07;4.03;;;;;;;;;;3584182;40;20041;-63
2021/07/09 13:22:44;;;;;;;5.10;3.60;;;;;;;;;;3576085;40;20052;-62
2021/07/09 13:25:20;;;;;;;7.18;3.85;;;;;;;;;;3582915;40;20049;-62
2021/07/09 13:27:56;;;;;;;8.02;4.18;;;;;;;;;;3576587;40;20025;-63
2021/07/09 13:30:21;;;;;;;7.70;4.18;;;;;;;;;;3584173;40;20305;-63
2021/07/09 13:32:46;;;;;;;6.18;4.00;;;;;;;;;;3584035;40;20043;-63
2021/07/09 13:35:16;;;;;;;8.55;4.20;;;;;;;;;;3583928;40;20076;-63
2021/07/09 13:37:44;;;;;;;4.93;3.40;;;;;;;;;;3582820;40;20077;-63
2021/07/09 13:40:11;;;;;;;12.45;4.90;;;;;;;;;;3583277;40;20036;-63
2021/07/09 13:42:38;;;;;;;7.03;5.30;;;;;;;;;;3583221;40;20276;-62
2021/07/09 13:45:05;;;;;;;7.93;5.03;;;;;;;;;;3584688;40;20029;-63
2021/07/09 13:47:32;;;;;;;6.43;5.50;;;;;;;;;;3583278;40;20044;-63
2021/07/09 13:49:58;;;;;;;8.20;6.05;;;;;;;;;;3583905;40;20080;-63
2021/07/09 13:52:24;;;;;;;6.70;5.97;;;;;;;;;;3582549;40;20057;-63
2021/07/09 13:54:49;;;;;;;8.05;5.93;;;;;;;;;;3581226;40;20097;-63
2021/07/09 13:57:15;;;;;;;8.05;7.13;;;;;;;;;;3584418;40;20118;-63
2021/07/09 13:59:40;;;;;;;9.77;7.10;;;;;;;;;;3582137;40;20032;-63
2021/07/09 14:02:06;;;;;;;12.50;7.75;;;;;;;;;;3584527;40;20300;-64
2021/07/09 14:04:33;;;;;;;8.55;6.90;;;;;;;;;;3583430;40;20029;-63
2021/07/09 14:06:58;;;;;;;11.95;7.40;;;;;;;;;;3582427;40;20064;-63
2021/07/09 14:09:24;;;;;;;8.38;6.97;;;;;;;;;;3583293;40;20041;-63
2021/07/09 14:11:49;;;;;;;8.00;5.93;;;;;;;;;;3584325;40;20049;-63
2021/07/09 14:14:17;;;;;;;6.72;6.03;;;;;;;;;;3581835;40;20036;-64
2021/07/09 14:16:45;;;;;;;7.47;6.03;;;;;;;;;;3581435;40;20077;-63
2021/07/09 14:19:11;;;;;;;8.13;6.07;;;;;;;;;;3583028;40;20056;-64
2021/07/09 14:21:36;;;;;;;6.45;5.00;;;;;;;;;;3584222;40;20064;-63
2021/07/09 14:24:02;;;;;;;6.30;5.70;;;;;;;;;;3583312;40;20611;-62
2021/07/09 14:26:27;;;;;;;11.00;6.85;;;;;;;;;;3583591;40;20033;-63
2021/07/09 14:28:52;;;;;;;11.65;5.93;;;;;;;;;;3583046;40;20036;-64
2021/07/09 14:31:18;;;;;;;6.30;5.03;;;;;;;;;;3573913;40;20029;-64
2021/07/09 14:33:43;;;;;;;6.60;5.05;;;;;;;;;;3584649;40;20108;-64
2021/07/09 14:36:09;;;;;;;5.80;4.32;;;;;;;;;;3583218;40;20036;-64